sensor_id;sensor_type;location;lat;lon;timestamp;pressure;altitude;pressure_sealevel;temperature;humidity
62800;BME280;48842;51.046;13.796;2022-11-04T00:01:44;99232.50;;;14.41;60.51
62800;BME280;48842;51.046;13.796;2022-11-04T00:04:11;99221.06;;;14.41;60.58
62800;BME280;48842;51.046;13.796;2022-11-04T00:06:37;99223.66;;;14.42;60.48
62800;BME280;48842;51.046;13.796;2022-11-04T00:09:04;99225.44;;;14.42;60.35
62800;BME280;48842;51.046;13.796;2022-11-04T00:11:30;99236.78;;;14.44;60.46
62800;BME280;48842;51.046;13.796;2022-11-04T00:14:15;99224.59;;;14.41;60.50
62800;BME280;48842;51.046;13.796;2022-11-04T00:16:40;99214.94;;;14.40;60.64
62800;BME280;48842;51.046;13.796;2022-11-04T00:19:24;99211.47;;;14.38;60.74
62800;BME280;48842;51.046;13.796;2022-11-04T00:21:50;99208.88;;;14.37;60.77
62800;BME280;48842;51.046;13.796;2022-11-04T00:24:34;99208.88;;;14.37;60.75
62800;BME280;48842;51.046;13.796;2022-11-04T00:27:20;99213.31;;;14.36;60.73
62800;BME280;48842;51.046;13.796;2022-11-04T00:30:07;99207.41;;;14.28;61.25
62800;BME280;48842;51.046;13.796;2022-11-04T00:32:33;99199.44;;;14.31;60.95
62800;BME280;48842;51.046;13.796;2022-11-04T00:35:17;99205.59;;;14.30;61.04
62800;BME280;48842;51.046;13.796;2022-11-04T00:37:43;99201.13;;;14.32;60.82
62800;BME280;48842;51.046;13.796;2022-11-04T00:40:11;99196.78;;;14.31;60.82
62800;BME280;48842;51.046;13.796;2022-11-04T00:42:36;99197.69;;;14.30;61.02
62800;BME280;48842;51.046;13.796;2022-11-04T00:45:02;99190.69;;;14.29;60.86
62800;BME280;48842;51.046;13.796;2022-11-04T00:47:27;99188.09;;;14.27;61.09
62800;BME280;48842;51.046;13.796;2022-11-04T00:49:53;99189.94;;;14.25;61.16
62800;BME280;48842;51.046;13.796;2022-11-04T00:52:18;99188.16;;;14.26;61.02
62800;BME280;48842;51.046;13.796;2022-11-04T00:54:43;99192.53;;;14.27;61.06
62800;BME280;48842;51.046;13.796;2022-11-04T00:57:10;99198.66;;;14.27;61.13
62800;BME280;48842;51.046;13.796;2022-11-04T00:59:35;99195.97;;;14.29;61.08
62800;BME280;48842;51.046;13.796;2022-11-04T01:02:01;99192.44;;;14.30;61.20
62800;BME280;48842;51.046;13.796;2022-11-04T01:04:26;99188.91;;;14.31;61.23
62800;BME280;48842;51.046;13.796;2022-11-04T01:06:51;99182.66;;;14.34;61.21
62800;BME280;48842;51.046;13.796;2022-11-04T01:09:17;99187.06;;;14.33;61.27
62800;BME280;48842;51.046;13.796;2022-11-04T01:11:42;99190.59;;;14.32;61.38
62800;BME280;48842;51.046;13.796;2022-11-04T01:14:08;99187.16;;;14.30;61.48
62800;BME280;48842;51.046;13.796;2022-11-04T01:16:33;99193.28;;;14.30;61.26
62800;BME280;48842;51.046;13.796;2022-11-04T01:18:59;99185.31;;;14.32;61.42
62800;BME280;48842;51.046;13.796;2022-11-04T01:21:24;99176.53;;;14.33;61.47
62800;BME280;48842;51.046;13.796;2022-11-04T01:23:49;99181.78;;;14.33;61.52
62800;BME280;48842;51.046;13.796;2022-11-04T01:26:20;99177.47;;;14.30;61.61
62800;BME280;48842;51.046;13.796;2022-11-04T01:28:46;99184.47;;;14.31;61.72
62800;BME280;48842;51.046;13.796;2022-11-04T01:31:13;99181.88;;;14.30;61.68
62800;BME280;48842;51.046;13.796;2022-11-04T01:33:39;99183.69;;;14.29;61.77
62800;BME280;48842;51.046;13.796;2022-11-04T01:36:07;99178.41;;;14.29;61.76
62800;BME280;48842;51.046;13.796;2022-11-04T01:38:33;99172.19;;;14.30;61.91
62800;BME280;48842;51.046;13.796;2022-11-04T01:40:58;99172.16;;;14.32;61.70
62800;BME280;48842;51.046;13.796;2022-11-04T01:46:07;99171.25;;;14.33;61.87
62800;BME280;48842;51.046;13.796;2022-11-04T01:48:34;99169.53;;;14.32;61.88
62800;BME280;48842;51.046;13.796;2022-11-04T01:51:00;99167.78;;;14.32;61.99
62800;BME280;48842;51.046;13.796;2022-11-04T01:53:27;99166.78;;;14.35;61.85
62800;BME280;48842;51.046;13.796;2022-11-04T01:55:56;99168.53;;;14.36;61.91
62800;BME280;48842;51.046;13.796;2022-11-04T01:58:25;99165.88;;;14.36;61.99
62800;BME280;48842;51.046;13.796;2022-11-04T02:00:51;99169.31;;;14.38;62.10
62800;BME280;48842;51.046;13.796;2022-11-04T02:03:38;99168.56;;;14.35;62.55
62800;BME280;48842;51.046;13.796;2022-11-04T02:06:05;99168.53;;;14.36;62.22
62800;BME280;48842;51.046;13.796;2022-11-04T02:08:32;99148.31;;;14.37;62.31
62800;BME280;48842;51.046;13.796;2022-11-04T02:11:00;99139.53;;;14.36;62.54
62800;BME280;48842;51.046;13.796;2022-11-04T02:13:26;99135.19;;;14.35;62.36
62800;BME280;48842;51.046;13.796;2022-11-04T02:29:17;99149.88;;;14.42;62.67
62800;BME280;48842;51.046;13.796;2022-11-04T02:32:17;99144.56;;;14.44;62.69
62800;BME280;48842;51.046;13.796;2022-11-04T02:40:32;99179.69;;;14.44;62.61
62800;BME280;48842;51.046;13.796;2022-11-04T02:43:21;99184.19;;;14.41;63.12
62800;BME280;48842;51.046;13.796;2022-11-04T02:48:56;99160.38;;;14.44;62.97
62800;BME280;48842;51.046;13.796;2022-11-04T02:51:30;99147.19;;;14.44;62.87
62800;BME280;48842;51.046;13.796;2022-11-04T02:54:06;99155.06;;;14.45;62.84
62800;BME280;48842;51.046;13.796;2022-11-04T02:56:38;99153.31;;;14.46;62.80
62800;BME280;48842;51.046;13.796;2022-11-04T02:59:09;99154.16;;;14.46;62.69
62800;BME280;48842;51.046;13.796;2022-11-04T03:01:39;99150.56;;;14.49;62.78
62800;BME280;48842;51.046;13.796;2022-11-04T03:04:12;99169.81;;;14.51;62.71
62800;BME280;48842;51.046;13.796;2022-11-04T03:06:43;99220.75;;;14.52;62.61
62800;BME280;48842;51.046;13.796;2022-11-04T03:09:10;99271.09;;;14.42;63.39
62800;BME280;48842;51.046;13.796;2022-11-04T03:11:42;99235.88;;;14.45;63.11
62800;BME280;48842;51.046;13.796;2022-11-04T03:14:13;99249.88;;;14.47;63.05
62800;BME280;48842;51.046;13.796;2022-11-04T03:16:45;99251.53;;;14.49;62.90
62800;BME280;48842;51.046;13.796;2022-11-04T03:21:52;99288.38;;;14.51;63.07
62800;BME280;48842;51.046;13.796;2022-11-04T03:24:19;99285.66;;;14.54;63.13
62800;BME280;48842;51.046;13.796;2022-11-04T03:26:56;99276.81;;;14.57;63.09
62800;BME280;48842;51.046;13.796;2022-11-04T03:32:36;99283.72;;;14.61;63.10
62800;BME280;48842;51.046;13.796;2022-11-04T03:35:05;99257.34;;;14.62;62.96
62800;BME280;48842;51.046;13.796;2022-11-04T03:37:31;99255.53;;;14.64;63.04
62800;BME280;48842;51.046;13.796;2022-11-04T03:39:57;99244.97;;;14.66;62.87
62800;BME280;48842;51.046;13.796;2022-11-04T03:42:23;99256.31;;;14.68;62.99
62800;BME280;48842;51.046;13.796;2022-11-04T03:44:54;99254.56;;;14.67;63.15
62800;BME280;48842;51.046;13.796;2022-11-04T03:47:23;99242.31;;;14.66;63.04
62800;BME280;48842;51.046;13.796;2022-11-04T03:49:50;99239.72;;;14.64;63.20
62800;BME280;48842;51.046;13.796;2022-11-04T03:52:17;99226.56;;;14.63;63.06
62800;BME280;48842;51.046;13.796;2022-11-04T03:54:44;99238.06;;;14.62;63.08
62800;BME280;48842;51.046;13.796;2022-11-04T03:57:28;99248.59;;;14.62;63.29
62800;BME280;48842;51.046;13.796;2022-11-04T04:00:05;99259.13;;;14.62;63.25
62800;BME280;48842;51.046;13.796;2022-11-04T04:05:33;99265.25;;;14.62;63.20
62800;BME280;48842;51.046;13.796;2022-11-04T04:08:13;99248.59;;;14.62;63.37
62800;BME280;48842;51.046;13.796;2022-11-04T04:10:48;99243.34;;;14.60;63.30
62800;BME280;48842;51.046;13.796;2022-11-04T04:13:30;99256.50;;;14.60;63.30
62800;BME280;48842;51.046;13.796;2022-11-04T04:18:41;99246.88;;;14.59;63.49
62800;BME280;48842;51.046;13.796;2022-11-04T04:21:12;99239.88;;;14.58;63.41
62800;BME280;48842;51.046;13.796;2022-11-04T04:23:40;99253.03;;;14.58;63.37
62800;BME280;48842;51.046;13.796;2022-11-04T04:26:26;99259.25;;;14.57;63.50
62800;BME280;48842;51.046;13.796;2022-11-04T04:29:11;99265.31;;;14.59;63.45
62800;BME280;48842;51.046;13.796;2022-11-04T04:31:38;99264.47;;;14.59;63.35
62800;BME280;48842;51.046;13.796;2022-11-04T04:34:14;99266.22;;;14.58;63.39
62800;BME280;48842;51.046;13.796;2022-11-04T04:39:38;99276.69;;;14.61;63.58
62800;BME280;48842;51.046;13.796;2022-11-04T04:42:23;99280.16;;;14.63;63.34
62800;BME280;48842;51.046;13.796;2022-11-04T04:45:08;99274.03;;;14.63;63.33
62800;BME280;48842;51.046;13.796;2022-11-04T04:47:42;99275.75;;;14.64;63.48
62800;BME280;48842;51.046;13.796;2022-11-04T04:50:10;99266.94;;;14.65;63.46
62800;BME280;48842;51.046;13.796;2022-11-04T04:52:43;99269.59;;;14.65;63.45
62800;BME280;48842;51.046;13.796;2022-11-04T04:55:09;99272.22;;;14.65;63.35
62800;BME280;48842;51.046;13.796;2022-11-04T04:57:35;99278.28;;;14.67;63.52
62800;BME280;48842;51.046;13.796;2022-11-04T05:00:00;99270.38;;;14.67;63.61
62800;BME280;48842;51.046;13.796;2022-11-04T05:02:25;99276.53;;;14.68;63.57
62800;BME280;48842;51.046;13.796;2022-11-04T05:04:51;99274.81;;;14.66;63.47
62800;BME280;48842;51.046;13.796;2022-11-04T05:07:16;99272.22;;;14.65;63.51
62800;BME280;48842;51.046;13.796;2022-11-04T05:09:41;99270.47;;;14.64;63.46
62800;BME280;48842;51.046;13.796;2022-11-04T05:12:07;99274.81;;;14.66;63.72
62800;BME280;48842;51.046;13.796;2022-11-04T05:14:32;99263.38;;;14.68;63.59
62800;BME280;48842;51.046;13.796;2022-11-04T05:16:57;99262.44;;;14.69;63.53
62800;BME280;48842;51.046;13.796;2022-11-04T05:19:23;99270.34;;;14.69;63.84
62800;BME280;48842;51.046;13.796;2022-11-04T05:21:48;99265.94;;;14.69;63.74
62800;BME280;48842;51.046;13.796;2022-11-04T05:24:13;99271.22;;;14.69;63.88
62800;BME280;48842;51.046;13.796;2022-11-04T05:26:39;99269.38;;;14.71;63.97
62800;BME280;48842;51.046;13.796;2022-11-04T05:29:04;99277.28;;;14.71;63.92
62800;BME280;48842;51.046;13.796;2022-11-04T05:31:30;99276.41;;;14.72;63.96
62800;BME280;48842;51.046;13.796;2022-11-04T05:33:55;99275.47;;;14.73;63.92
62800;BME280;48842;51.046;13.796;2022-11-04T05:36:21;99272.81;;;14.75;64.04
62800;BME280;48842;51.046;13.796;2022-11-04T05:38:50;99272.75;;;14.76;64.14
62800;BME280;48842;51.046;13.796;2022-11-04T05:41:17;99278.00;;;14.78;64.03
62800;BME280;48842;51.046;13.796;2022-11-04T05:43:55;99284.09;;;14.78;64.30
62800;BME280;48842;51.046;13.796;2022-11-04T05:46:24;99273.56;;;14.78;64.18
62800;BME280;48842;51.046;13.796;2022-11-04T05:48:50;99269.19;;;14.77;64.50
62800;BME280;48842;51.046;13.796;2022-11-04T05:51:17;99270.97;;;14.77;64.41
62800;BME280;48842;51.046;13.796;2022-11-04T05:53:43;99278.03;;;14.76;64.52
62800;BME280;48842;51.046;13.796;2022-11-04T05:56:08;99275.41;;;14.76;64.67
62800;BME280;48842;51.046;13.796;2022-11-04T05:58:34;99273.66;;;14.75;64.68
62800;BME280;48842;51.046;13.796;2022-11-04T06:01:22;99288.63;;;14.75;65.10
62800;BME280;48842;51.046;13.796;2022-11-04T06:03:48;99290.38;;;14.74;64.92
62800;BME280;48842;51.046;13.796;2022-11-04T06:06:14;99300.06;;;14.74;65.12
62800;BME280;48842;51.046;13.796;2022-11-04T06:08:40;99296.56;;;14.73;65.17
62800;BME280;48842;51.046;13.796;2022-11-04T06:11:05;99294.84;;;14.72;65.31
62800;BME280;48842;51.046;13.796;2022-11-04T06:13:30;99299.22;;;14.72;65.33
62800;BME280;48842;51.046;13.796;2022-11-04T06:15:56;99306.25;;;14.73;65.30
62800;BME280;48842;51.046;13.796;2022-11-04T06:18:21;99292.25;;;14.71;65.37
62800;BME280;48842;51.046;13.796;2022-11-04T06:20:46;99303.66;;;14.71;65.43
62800;BME280;48842;51.046;13.796;2022-11-04T06:23:12;99303.66;;;14.71;65.50
62800;BME280;48842;51.046;13.796;2022-11-04T06:25:37;99296.66;;;14.70;65.57
62800;BME280;48842;51.046;13.796;2022-11-04T06:28:02;99309.88;;;14.69;65.49
62800;BME280;48842;51.046;13.796;2022-11-04T06:30:27;99304.66;;;14.67;65.60
62800;BME280;48842;51.046;13.796;2022-11-04T06:32:53;99297.63;;;14.68;65.69
62800;BME280;48842;51.046;13.796;2022-11-04T06:35:18;99295.88;;;14.66;65.57
62800;BME280;48842;51.046;13.796;2022-11-04T06:37:43;99298.53;;;14.66;65.76
62800;BME280;48842;51.046;13.796;2022-11-04T06:40:09;99295.03;;;14.66;65.74
62800;BME280;48842;51.046;13.796;2022-11-04T06:42:35;99289.78;;;14.66;65.60
62800;BME280;48842;51.046;13.796;2022-11-04T06:45:00;99288.88;;;14.65;65.79
62800;BME280;48842;51.046;13.796;2022-11-04T06:47:25;99300.31;;;14.66;65.72
62800;BME280;48842;51.046;13.796;2022-11-04T06:49:51;99302.00;;;14.67;65.92
62800;BME280;48842;51.046;13.796;2022-11-04T06:52:16;99303.75;;;14.68;65.77
62800;BME280;48842;51.046;13.796;2022-11-04T06:54:41;99298.47;;;14.68;65.97
62800;BME280;48842;51.046;13.796;2022-11-04T06:57:09;99286.16;;;14.69;65.93
62800;BME280;48842;51.046;13.796;2022-11-04T06:59:35;99286.09;;;14.70;66.09
62800;BME280;48842;51.046;13.796;2022-11-04T07:02:01;99280.84;;;14.70;66.26
62800;BME280;48842;51.046;13.796;2022-11-04T07:04:26;99272.88;;;14.72;66.26
62800;BME280;48842;51.046;13.796;2022-11-04T07:06:51;99272.88;;;14.72;66.27
62800;BME280;48842;51.046;13.796;2022-11-04T07:09:17;99275.47;;;14.73;66.39
62800;BME280;48842;51.046;13.796;2022-11-04T07:11:43;99275.44;;;14.75;66.30
62800;BME280;48842;51.046;13.796;2022-11-04T07:14:09;99272.75;;;14.76;66.57
62800;BME280;48842;51.046;13.796;2022-11-04T07:16:35;99284.97;;;14.79;66.53
62800;BME280;48842;51.046;13.796;2022-11-04T07:19:00;99274.38;;;14.80;66.58
62800;BME280;48842;51.046;13.796;2022-11-04T07:21:25;99284.00;;;14.81;66.49
62800;BME280;48842;51.046;13.796;2022-11-04T07:23:51;99276.06;;;14.83;66.74
62800;BME280;48842;51.046;13.796;2022-11-04T07:26:16;99272.47;;;14.86;66.42
62800;BME280;48842;51.046;13.796;2022-11-04T07:28:41;99275.06;;;14.87;66.64
62800;BME280;48842;51.046;13.796;2022-11-04T07:31:09;99280.22;;;14.90;66.56
62800;BME280;48842;51.046;13.796;2022-11-04T07:33:34;99291.63;;;14.92;66.39
62800;BME280;48842;51.046;13.796;2022-11-04T07:36:05;99298.50;;;14.96;66.55
62800;BME280;48842;51.046;13.796;2022-11-04T07:38:31;99295.75;;;14.99;66.43
62800;BME280;48842;51.046;13.796;2022-11-04T07:40:57;99294.75;;;15.04;66.54
62800;BME280;48842;51.046;13.796;2022-11-04T07:43:22;99297.25;;;15.08;66.62
62800;BME280;48842;51.046;13.796;2022-11-04T07:46:01;99309.44;;;15.12;66.61
62800;BME280;48842;51.046;13.796;2022-11-04T07:48:27;99318.06;;;15.17;66.39
62800;BME280;48842;51.046;13.796;2022-11-04T07:50:59;99317.91;;;15.22;66.15
62800;BME280;48842;51.046;13.796;2022-11-04T07:53:26;99320.41;;;15.27;66.33
62800;BME280;48842;51.046;13.796;2022-11-04T07:55:52;99322.94;;;15.30;66.18
62800;BME280;48842;51.046;13.796;2022-11-04T07:58:18;99325.47;;;15.33;66.00
62800;BME280;48842;51.046;13.796;2022-11-04T08:00:44;99326.31;;;15.35;66.04
62800;BME280;48842;51.046;13.796;2022-11-04T08:03:09;99342.94;;;15.37;65.81
62800;BME280;48842;51.046;13.796;2022-11-04T08:05:35;99336.81;;;15.36;65.73
62800;BME280;48842;51.046;13.796;2022-11-04T08:08:00;99339.41;;;15.38;65.63
62800;BME280;48842;51.046;13.796;2022-11-04T08:10:25;99334.13;;;15.38;65.38
62800;BME280;48842;51.046;13.796;2022-11-04T08:12:51;99331.50;;;15.38;65.38
62800;BME280;48842;51.046;13.796;2022-11-04T08:15:17;99326.22;;;15.38;65.47
62800;BME280;48842;51.046;13.796;2022-11-04T08:17:42;99325.34;;;15.38;65.20
62800;BME280;48842;51.046;13.796;2022-11-04T08:20:08;99322.75;;;15.36;65.35
62800;BME280;48842;51.046;13.796;2022-11-04T08:22:33;99310.47;;;15.35;65.17
62800;BME280;48842;51.046;13.796;2022-11-04T08:24:59;99314.91;;;15.33;65.16
62800;BME280;48842;51.046;13.796;2022-11-04T08:27:24;99315.81;;;15.33;65.15
62800;BME280;48842;51.046;13.796;2022-11-04T08:29:50;99310.59;;;15.32;65.26
62800;BME280;48842;51.046;13.796;2022-11-04T08:32:15;99314.13;;;15.31;65.13
62800;BME280;48842;51.046;13.796;2022-11-04T08:34:41;99307.13;;;15.30;65.09
62800;BME280;48842;51.046;13.796;2022-11-04T08:37:06;99304.56;;;15.27;64.97
62800;BME280;48842;51.046;13.796;2022-11-04T08:39:32;99314.34;;;15.25;64.84
62800;BME280;48842;51.046;13.796;2022-11-04T08:41:57;99302.03;;;15.24;64.69
62800;BME280;48842;51.046;13.796;2022-11-04T08:44:22;99288.84;;;15.24;64.63
62800;BME280;48842;51.046;13.796;2022-11-04T08:46:48;99297.56;;;15.26;64.67
62800;BME280;48842;51.046;13.796;2022-11-04T08:49:13;99304.56;;;15.27;64.70
62800;BME280;48842;51.046;13.796;2022-11-04T08:51:42;99301.03;;;15.28;64.80
62800;BME280;48842;51.046;13.796;2022-11-04T08:54:07;99294.81;;;15.30;64.67
62800;BME280;48842;51.046;13.796;2022-11-04T08:56:35;99290.38;;;15.31;64.42
62800;BME280;48842;51.046;13.796;2022-11-04T08:59:02;99291.28;;;15.30;64.62
62800;BME280;48842;51.046;13.796;2022-11-04T09:01:29;99283.38;;;15.30;64.74
62800;BME280;48842;51.046;13.796;2022-11-04T09:03:55;99278.97;;;15.30;64.80
62800;BME280;48842;51.046;13.796;2022-11-04T09:06:23;99270.16;;;15.30;64.77
62800;BME280;48842;51.046;13.796;2022-11-04T09:08:49;99267.53;;;15.30;64.89
62800;BME280;48842;51.046;13.796;2022-11-04T09:11:15;99269.31;;;15.29;64.75
62800;BME280;48842;51.046;13.796;2022-11-04T09:13:41;99279.03;;;15.29;65.01
62800;BME280;48842;51.046;13.796;2022-11-04T09:16:10;99286.94;;;15.29;65.05
62800;BME280;48842;51.046;13.796;2022-11-04T09:18:35;99291.38;;;15.27;64.89
62800;BME280;48842;51.046;13.796;2022-11-04T09:21:03;99302.91;;;15.24;64.72
62800;BME280;48842;51.046;13.796;2022-11-04T09:23:29;99302.03;;;15.24;64.51
62800;BME280;48842;51.046;13.796;2022-11-04T09:25:54;99295.03;;;15.23;64.45
62800;BME280;48842;51.046;13.796;2022-11-04T09:28:21;99288.84;;;15.24;64.49
62800;BME280;48842;51.046;13.796;2022-11-04T09:30:46;99289.97;;;15.16;64.44
62800;BME280;48842;51.046;13.796;2022-11-04T09:33:12;99292.69;;;15.13;64.50
62800;BME280;48842;51.046;13.796;2022-11-04T09:35:37;99290.25;;;15.07;64.22
62800;BME280;48842;51.046;13.796;2022-11-04T09:38:02;99294.69;;;15.05;64.51
62800;BME280;48842;51.046;13.796;2022-11-04T09:40:28;99290.38;;;15.04;64.57
62800;BME280;48842;51.046;13.796;2022-11-04T09:43:29;99299.22;;;15.01;65.05
62800;BME280;48842;51.046;13.796;2022-11-04T09:45:57;99308.00;;;15.02;64.76
62800;BME280;48842;51.046;13.796;2022-11-04T09:48:38;99306.28;;;15.01;65.14
62800;BME280;48842;51.046;13.796;2022-11-04T09:51:07;99308.94;;;15.01;65.01
62800;BME280;48842;51.046;13.796;2022-11-04T09:53:39;99313.38;;;14.99;65.40
62800;BME280;48842;51.046;13.796;2022-11-04T09:56:16;99316.91;;;14.98;65.48
62800;BME280;48842;51.046;13.796;2022-11-04T09:58:44;99331.81;;;14.99;65.48
62800;BME280;48842;51.046;13.796;2022-11-04T10:03:43;99334.94;;;14.83;66.25
62800;BME280;48842;51.046;13.796;2022-11-04T10:06:32;99335.38;;;14.68;67.42
62800;BME280;48842;51.046;13.796;2022-11-04T10:09:26;99338.16;;;14.63;67.82
62800;BME280;48842;51.046;13.796;2022-11-04T10:12:11;99340.78;;;14.63;67.62
62800;BME280;48842;51.046;13.796;2022-11-04T10:17:37;99348.69;;;14.63;68.34
62800;BME280;48842;51.046;13.796;2022-11-04T10:20:21;99356.66;;;14.62;68.10
62800;BME280;48842;51.046;13.796;2022-11-04T10:22:56;99360.16;;;14.61;67.98
62800;BME280;48842;51.046;13.796;2022-11-04T10:26:36;99362.78;;;14.61;69.04
62800;BME280;48842;51.046;13.796;2022-11-04T10:28:46;99366.31;;;14.61;68.41
62800;BME280;48842;51.046;13.796;2022-11-04T10:31:15;99368.97;;;14.60;68.46
62800;BME280;48842;51.046;13.796;2022-11-04T10:33:47;99368.34;;;14.52;69.69
62800;BME280;48842;51.046;13.796;2022-11-04T10:36:16;99367.59;;;14.46;69.13
62800;BME280;48842;51.046;13.796;2022-11-04T10:38:50;99375.66;;;14.40;69.37
62800;BME280;48842;51.046;13.796;2022-11-04T10:41:25;99375.44;;;14.17;69.68
62800;BME280;48842;51.046;13.796;2022-11-04T10:44:16;99371.22;;;14.09;70.51
62800;BME280;48842;51.046;13.796;2022-11-04T10:49:53;99379.31;;;14.02;70.56
62800;BME280;48842;51.046;13.796;2022-11-04T10:52:22;99393.84;;;13.82;71.15
62800;BME280;48842;51.046;13.796;2022-11-04T10:54:48;99397.28;;;13.86;70.51
62800;BME280;48842;51.046;13.796;2022-11-04T10:57:25;99399.03;;;13.85;70.94
62800;BME280;48842;51.046;13.796;2022-11-04T11:07:42;99397.91;;;13.95;70.13
62800;BME280;48842;51.046;13.796;2022-11-04T11:10:22;99402.38;;;13.92;70.46
62800;BME280;48842;51.046;13.796;2022-11-04T11:12:57;99389.19;;;13.93;70.34
62800;BME280;48842;51.046;13.796;2022-11-04T11:17:50;99395.38;;;13.91;70.46
62800;BME280;48842;51.046;13.796;2022-11-04T11:20:19;99385.72;;;13.91;70.41
62800;BME280;48842;51.046;13.796;2022-11-04T11:22:46;99364.72;;;13.88;70.67
62800;BME280;48842;51.046;13.796;2022-11-04T11:25:27;99372.66;;;13.87;70.89
62800;BME280;48842;51.046;13.796;2022-11-04T11:27:56;99373.59;;;13.86;70.39
62800;BME280;48842;51.046;13.796;2022-11-04T11:32:54;99382.31;;;13.88;70.55
62800;BME280;48842;51.046;13.796;2022-11-04T11:35:24;99383.97;;;13.92;70.79
62800;BME280;48842;51.046;13.796;2022-11-04T11:37:51;99380.41;;;13.94;70.60
62800;BME280;48842;51.046;13.796;2022-11-04T11:40:25;99378.56;;;13.96;70.63
62800;BME280;48842;51.046;13.796;2022-11-04T11:42:51;99373.22;;;14.00;70.58
62800;BME280;48842;51.046;13.796;2022-11-04T11:45:19;99370.56;;;14.01;70.64
62800;BME280;48842;51.046;13.796;2022-11-04T11:47:47;99370.56;;;14.01;70.51
62800;BME280;48842;51.046;13.796;2022-11-04T11:50:21;99360.09;;;13.98;70.52
62800;BME280;48842;51.046;13.796;2022-11-04T11:53:15;99361.97;;;13.94;70.88
62800;BME280;48842;51.046;13.796;2022-11-04T11:55:44;99369.88;;;13.93;70.75
62800;BME280;48842;51.046;13.796;2022-11-04T11:58:24;99366.38;;;13.92;70.59
62800;BME280;48842;51.046;13.796;2022-11-04T12:01:05;99376.06;;;13.92;70.79
62800;BME280;48842;51.046;13.796;2022-11-04T12:03:33;99375.31;;;13.87;70.85
62800;BME280;48842;51.046;13.796;2022-11-04T12:08:49;99368.63;;;13.73;71.32
62800;BME280;48842;51.046;13.796;2022-11-04T12:11:29;99373.00;;;13.74;70.96
62800;BME280;48842;51.046;13.796;2022-11-04T12:14:04;99375.00;;;13.63;71.30
62800;BME280;48842;51.046;13.796;2022-11-04T12:16:45;99370.75;;;13.57;71.79
62800;BME280;48842;51.046;13.796;2022-11-04T12:19:33;99375.16;;;13.57;71.70
62800;BME280;48842;51.046;13.796;2022-11-04T12:25:02;99366.22;;;13.64;71.24
62800;BME280;48842;51.046;13.796;2022-11-04T12:27:54;99374.13;;;13.64;71.49
62800;BME280;48842;51.046;13.796;2022-11-04T12:30:23;99377.59;;;13.65;71.20
62800;BME280;48842;51.046;13.796;2022-11-04T12:35:49;99375.25;;;13.54;70.54
62800;BME280;48842;51.046;13.796;2022-11-04T12:38:34;99368.25;;;13.53;70.16
62800;BME280;48842;51.046;13.796;2022-11-04T12:41:25;99371.00;;;13.48;69.94
62800;BME280;48842;51.046;13.796;2022-11-04T12:44:07;99364.88;;;13.46;70.16
62800;BME280;48842;51.046;13.796;2022-11-04T12:51:53;99346.44;;;13.48;70.23
62800;BME280;48842;51.046;13.796;2022-11-04T12:54:33;99354.31;;;13.48;70.16
62800;BME280;48842;51.046;13.796;2022-11-04T13:07:37;99339.41;;;13.48;70.11
62800;BME280;48842;51.046;13.796;2022-11-04T13:10:15;99346.47;;;13.46;70.09
62800;BME280;48842;51.046;13.796;2022-11-04T13:12:44;99338.69;;;13.41;69.98
62800;BME280;48842;51.046;13.796;2022-11-04T13:15:18;99346.63;;;13.40;70.09
62800;BME280;48842;51.046;13.796;2022-11-04T13:17:46;99358.91;;;13.39;70.04
62800;BME280;48842;51.046;13.796;2022-11-04T13:23:06;99352.88;;;13.34;69.84
62800;BME280;48842;51.046;13.796;2022-11-04T13:25:39;99355.53;;;13.34;69.85
62800;BME280;48842;51.046;13.796;2022-11-04T13:28:10;99361.66;;;13.35;69.89
62800;BME280;48842;51.046;13.796;2022-11-04T13:35:57;99359.91;;;13.34;70.03
62800;BME280;48842;51.046;13.796;2022-11-04T13:38:39;99374.78;;;13.36;69.87
62800;BME280;48842;51.046;13.796;2022-11-04T13:41:31;99376.44;;;13.39;69.89
62800;BME280;48842;51.046;13.796;2022-11-04T13:44:11;99380.00;;;13.38;69.85
62800;BME280;48842;51.046;13.796;2022-11-04T13:46:38;99378.25;;;13.37;69.54
62800;BME280;48842;51.046;13.796;2022-11-04T13:54:22;99382.75;;;13.32;70.06
62800;BME280;48842;51.046;13.796;2022-11-04T13:56:48;99387.13;;;13.31;69.99
62800;BME280;48842;51.046;13.796;2022-11-04T13:59:21;99390.63;;;13.32;70.16
62800;BME280;48842;51.046;13.796;2022-11-04T14:01:47;99391.50;;;13.32;70.25
62800;BME280;48842;51.046;13.796;2022-11-04T14:06:51;99394.31;;;13.24;70.32
62800;BME280;48842;51.046;13.796;2022-11-04T14:09:29;99387.31;;;13.23;70.08
62800;BME280;48842;51.046;13.796;2022-11-04T14:20:09;99397.16;;;13.14;69.78
62800;BME280;48842;51.046;13.796;2022-11-04T14:27:49;99413.03;;;13.09;69.83
62800;BME280;48842;51.046;13.796;2022-11-04T14:30:31;99418.25;;;13.10;69.97
62800;BME280;48842;51.046;13.796;2022-11-04T14:33:02;99420.81;;;13.14;69.96
62800;BME280;48842;51.046;13.796;2022-11-04T14:35:28;99419.03;;;13.16;70.14
62800;BME280;48842;51.046;13.796;2022-11-04T14:37:55;99424.22;;;13.19;70.12
62800;BME280;48842;51.046;13.796;2022-11-04T14:40:44;99423.31;;;13.20;70.54
62800;BME280;48842;51.046;13.796;2022-11-04T14:43:27;99433.75;;;13.24;70.46
62800;BME280;48842;51.046;13.796;2022-11-04T14:45:54;99435.41;;;13.27;70.15
62800;BME280;48842;51.046;13.796;2022-11-04T14:48:21;99435.34;;;13.30;70.30
62800;BME280;48842;51.046;13.796;2022-11-04T14:50:50;99438.78;;;13.34;70.23
62800;BME280;48842;51.046;13.796;2022-11-04T14:53:36;99437.03;;;13.36;69.99
62800;BME280;48842;51.046;13.796;2022-11-04T14:56:18;99443.16;;;13.36;70.19
62800;BME280;48842;51.046;13.796;2022-11-04T14:58:54;99439.63;;;13.37;70.05
62800;BME280;48842;51.046;13.796;2022-11-04T15:01:20;99451.00;;;13.39;70.06